Ambler, PA

11:36 PM EDT on October 24, 2014 (GMT -0400)
Ambler | Change Station
CLOSE
Current Station
Personal Weather Station
Location: Ambler, PA
Elevation: 262 ft
Nearby Weather Stations

Elev 262 ft 40.16 °N, 75.23 °W | Updated 4 minutes ago

Clear
Clear
48.9 °F
Feels Like 49 °F
N
0.0
Wind Variable Wind from North
Gusts 0.0 mph

Today
High -- | Low -- °F
--% Chance of Precip.
Yesterday
High -- | Low -- °F
Precip. -- in
7:21 AM 6:08 PM
New Moon, 2% visible
Pressure 29.87 in
Visibility 10.0 miles
Clouds Clear
Windchill 49 °F
Dew Point 43 °F
Humidity 81%
Rainfall 0.00 in
Snow Depth Not available.
UV 0 out of 12
Pollen .30 out of 12
Air Quality Not available.
Flu Activity Sporadic
METAR KLOM 250315Z AUTO 28004KT 10SM CLR 12/03 A2987 RMK AO1

More Conditions Fewer Conditions

Pressure 29.87 in
Visibility 10.0 miles
Clouds Clear
Windchill 49 °F
Dew Point 43 °F
Humidity 81%
Rainfall 0.00 in
Snow Depth Not available.
UV 0 out of 12
Pollen .30 out of 12
Air Quality Not available.
Flu Activity Sporadic
METAR KLOM 250315Z AUTO 28004KT 10SM CLR 12/03 A2987 RMK AO1

More Conditions Fewer Conditions

10-Day Weather Forecast

Almanac

Astronomy

Oct. 24, 2014 Rise Set
Actual Time 7:21 AM EDT 6:08 PM EDT
Civil Twilight 6:53 AM EDT 6:35 PM EDT
Nautical Twilight 6:21 AM EDT 7:07 PM EDT
Astronomical Twilight 5:50 AM EDT 7:39 PM EDT
Moon 7:57 AM EDT (10/24) 6:46 PM EDT (10/24)
Length of Visible Light 11h 42m
Length of Day
10h 47m
Tomorrow will be 2m 27s shorter.
New Moon, 2% of the Moon is Illuminated
Today
New Moon
Oct 30
First Quarter
Nov 6
Full
Nov 14
Last Quarter
Nov 22
New

Today's Extremes

State Highs State Lows

Community

WunderPhotos

Upload Photos

1,764,771 photos uploaded!

Nearby

Snow Depth

Station Depth Elevation
No new snow has been reported.

Earthquake Activity

City Distance Mag. Time & Date
No recent earthquake activity has been reported nearby.
Minimum magnitude displayed is 2.5.

Coastal Water Temperatures

Place Temperature
No Stations Reporting

Nearby Weather Stations